createdAt,value
2022-12-18T00:01:22.089Z,45905.88
2022-12-18T00:03:49.500Z,45909.88
2022-12-18T00:06:19.752Z,45919.84
2022-12-18T00:08:46.394Z,45909.88
2022-12-18T00:11:18.111Z,45909.88
2022-12-18T00:13:45.291Z,45927.84
2022-12-18T00:16:14.242Z,45921.84
2022-12-18T00:18:41.507Z,45937.84
2022-12-18T00:21:11.435Z,45919.84
2022-12-18T00:23:39.433Z,45891.88
2022-12-18T00:26:10.940Z,45921.84
2022-12-18T00:28:37.571Z,45949.84
2022-12-18T00:31:06.758Z,45909.88
2022-12-18T00:33:34.341Z,45933.84
2022-12-18T00:36:10.523Z,45933.84
2022-12-18T00:38:37.725Z,45929.84
2022-12-18T00:41:04.780Z,45913.84
2022-12-18T00:43:31.179Z,45913.84
2022-12-18T00:45:57.610Z,45911.84
2022-12-18T00:48:24.053Z,45915.84
2022-12-18T00:50:51.187Z,45937.84
2022-12-18T00:53:18.452Z,45919.84
2022-12-18T00:55:46.285Z,45897.88
2022-12-18T00:58:14.396Z,45897.88
2022-12-18T01:00:40.903Z,45905.88
2022-12-18T01:03:14.180Z,45919.84
2022-12-18T01:05:42.114Z,45909.88
2022-12-18T01:08:08.613Z,45921.84
2022-12-18T01:10:35.331Z,45907.88
2022-12-18T01:13:01.815Z,45913.84
2022-12-18T01:15:28.198Z,45899.88
2022-12-18T01:17:54.650Z,45923.84
2022-12-18T01:20:21.949Z,45921.84
2022-12-18T01:22:48.372Z,45909.88
2022-12-18T01:25:14.831Z,45913.84
2022-12-18T01:27:41.331Z,45949.84
2022-12-18T01:30:08.259Z,45947.84
2022-12-18T01:32:34.909Z,45933.84
2022-12-18T01:35:02.463Z,45935.84
2022-12-18T01:37:28.870Z,45937.84
2022-12-18T01:39:55.667Z,45913.84
2022-12-18T01:42:23.069Z,45929.84
2022-12-18T01:45:14.576Z,45949.84
2022-12-18T01:47:48.683Z,45941.84
2022-12-18T01:50:42.809Z,45961.81
2022-12-18T01:53:17.570Z,45957.84
2022-12-18T01:55:47.693Z,45953.84
2022-12-18T01:58:14.583Z,45945.84
2022-12-18T02:00:41.609Z,45937.84
2022-12-18T02:03:08.437Z,45941.84
2022-12-18T02:05:50.254Z,45909.88
2022-12-18T02:08:34.340Z,45913.84
2022-12-18T02:11:25.543Z,45929.84
2022-12-18T02:14:12.914Z,45945.84
2022-12-18T02:17:02.810Z,45899.88
2022-12-18T02:20:01.603Z,45933.84
2022-12-18T02:23:15.426Z,45937.84
2022-12-18T02:26:07.011Z,45937.84
2022-12-18T02:28:39.400Z,45929.84
2022-12-18T02:31:11.867Z,45933.84
2022-12-18T02:33:40.500Z,45907.88
2022-12-18T02:36:10.335Z,45925.84
2022-12-18T02:38:37.899Z,45925.84
2022-12-18T02:41:13.942Z,45949.84
2022-12-18T02:43:42.239Z,45939.84
2022-12-18T02:46:28.392Z,45925.84
2022-12-18T02:49:38.932Z,45925.84
2022-12-18T02:52:11.243Z,45909.88
2022-12-18T02:54:38.352Z,45925.84
2022-12-18T02:57:19.720Z,45953.84
2022-12-18T03:00:05.277Z,45923.84
2022-12-18T03:02:54.824Z,45921.84
2022-12-18T03:05:26.240Z,45929.84
2022-12-18T03:08:04.817Z,45943.84
2022-12-18T03:10:43.357Z,45921.84
2022-12-18T03:13:14.908Z,45929.84
2022-12-18T03:15:50.283Z,45949.84
2022-12-18T03:18:22.570Z,45945.84
2022-12-18T03:20:51.828Z,45911.84
2022-12-18T03:23:37.597Z,45925.84
2022-12-18T03:26:10.156Z,45957.84
2022-12-18T03:28:45.688Z,45941.84
2022-12-18T03:31:14.965Z,45953.84
2022-12-18T03:33:56.816Z,45941.84
2022-12-18T03:36:32.562Z,45907.88
2022-12-18T03:38:59.198Z,45921.84
2022-12-18T03:41:42.127Z,45951.84
2022-12-18T03:44:33.410Z,45925.84
2022-12-18T03:47:13.333Z,45933.84
2022-12-18T03:49:50.213Z,45933.84
2022-12-18T03:52:28.806Z,45909.88
2022-12-18T03:54:59.040Z,45921.84
2022-12-18T03:57:31.210Z,45925.84
2022-12-18T04:00:03.659Z,45921.84
2022-12-18T04:02:48.274Z,45915.84
2022-12-18T04:05:23.325Z,45915.84
2022-12-18T04:07:51.911Z,45945.84
2022-12-18T04:10:18.598Z,45925.84
2022-12-18T04:12:45.366Z,45929.84
2022-12-18T04:15:14.159Z,45913.84
2022-12-18T04:17:48.656Z,45923.84
2022-12-18T04:20:18.236Z,45905.88
2022-12-18T04:22:46.042Z,45913.84
2022-12-18T04:25:13.930Z,45905.88
2022-12-18T04:27:50.107Z,45889.88
2022-12-18T04:30:16.549Z,45905.88
2022-12-18T04:32:46.499Z,45913.84
2022-12-18T04:35:15.777Z,45929.84
2022-12-18T04:37:43.981Z,45919.84
2022-12-18T04:40:11.396Z,45921.84
2022-12-18T04:42:42.266Z,45893.88
2022-12-18T04:45:09.218Z,45897.88
2022-12-18T04:47:35.735Z,45901.88
2022-12-18T04:50:02.833Z,45923.84
2022-12-18T04:52:32.230Z,45901.88
2022-12-18T04:54:58.637Z,45901.88
2022-12-18T04:57:25.063Z,45929.84
2022-12-18T04:59:51.489Z,45909.88
2022-12-18T05:02:17.933Z,45937.84
2022-12-18T05:04:44.345Z,45905.88
2022-12-18T05:07:10.714Z,45917.84
2022-12-18T05:09:37.087Z,45921.84
2022-12-18T05:12:03.653Z,45919.84
2022-12-18T05:14:30.306Z,45897.88
2022-12-18T05:17:00.647Z,45909.88
2022-12-18T05:19:27.523Z,45897.88
2022-12-18T05:21:53.975Z,45909.88
2022-12-18T05:24:20.469Z,45907.88
2022-12-18T05:26:47.275Z,45905.88
2022-12-18T05:29:14.081Z,45925.84
2022-12-18T05:31:41.615Z,45923.84
2022-12-18T05:34:09.628Z,45917.84
2022-12-18T05:36:37.147Z,45933.84
2022-12-18T05:39:05.339Z,45909.88
2022-12-18T05:41:32.576Z,45911.84
2022-12-18T05:43:59.229Z,45919.84
2022-12-18T05:46:25.932Z,45903.88
2022-12-18T05:48:52.507Z,45903.88
2022-12-18T05:51:21.131Z,45933.84
2022-12-18T05:53:49.125Z,45929.84
2022-12-18T05:56:19.034Z,45921.84
2022-12-18T05:58:46.909Z,45923.84
2022-12-18T06:01:22.067Z,45917.84
2022-12-18T06:03:48.534Z,45953.84
2022-12-18T06:06:17.532Z,45889.88
2022-12-18T06:08:46.395Z,45915.84
2022-12-18T06:11:14.170Z,45931.84
2022-12-18T06:13:41.240Z,45905.88
2022-12-18T06:16:09.023Z,45905.88
2022-12-18T06:18:38.169Z,45921.84
2022-12-18T06:21:04.848Z,45921.84
2022-12-18T06:23:31.208Z,45925.84
2022-12-18T06:25:57.700Z,45937.84
2022-12-18T06:28:24.216Z,45929.84
2022-12-18T06:30:51.546Z,45913.84
2022-12-18T06:33:18.171Z,45913.84
2022-12-18T06:35:44.529Z,45901.88
2022-12-18T06:38:11.003Z,45919.84
2022-12-18T06:40:39.807Z,45937.84
2022-12-18T06:43:06.937Z,45925.84
2022-12-18T06:45:33.555Z,45913.84
2022-12-18T06:48:00.407Z,45921.84
2022-12-18T06:50:26.883Z,45919.84
2022-12-18T06:52:53.249Z,45925.84
2022-12-18T06:55:19.862Z,45933.84
2022-12-18T06:57:46.249Z,45913.84
2022-12-18T07:00:13.133Z,45923.84
2022-12-18T07:02:39.940Z,45915.84
2022-12-18T07:05:10.735Z,45895.88
2022-12-18T07:07:38.005Z,45929.84
2022-12-18T07:10:05.109Z,45937.84
2022-12-18T07:12:31.559Z,45919.84
2022-12-18T07:14:57.977Z,45897.88
2022-12-18T07:17:24.699Z,45919.84
2022-12-18T07:19:51.126Z,45885.88
2022-12-18T07:22:17.856Z,45913.84
2022-12-18T07:24:44.220Z,45895.88
2022-12-18T07:27:10.610Z,45941.84
2022-12-18T07:29:37.090Z,45909.88
2022-12-18T07:32:04.782Z,45881.88
2022-12-18T07:34:31.195Z,45925.84
2022-12-18T07:36:57.666Z,45891.88
2022-12-18T07:39:24.082Z,45899.88
2022-12-18T07:42:10.439Z,45893.88
2022-12-18T07:44:39.969Z,45905.88
2022-12-18T07:47:10.537Z,45903.88
2022-12-18T07:49:38.613Z,45903.88
2022-12-18T07:52:05.175Z,45909.88
2022-12-18T07:54:31.560Z,45873.88
2022-12-18T07:56:58.333Z,45877.88
2022-12-18T07:59:24.701Z,45899.88
2022-12-18T08:01:51.188Z,45905.88
2022-12-18T08:04:17.966Z,45899.88
2022-12-18T08:06:47.746Z,45905.88
2022-12-18T08:09:14.871Z,45911.84
2022-12-18T08:11:41.423Z,45903.88
2022-12-18T08:14:07.879Z,45889.88
2022-12-18T08:16:34.409Z,45897.88
2022-12-18T08:19:01.156Z,45891.88
2022-12-18T08:21:30.332Z,45897.88
2022-12-18T08:23:59.421Z,45883.88
2022-12-18T08:26:27.928Z,45873.88
2022-12-18T08:28:55.692Z,45895.88
2022-12-18T08:31:22.771Z,45903.88
2022-12-18T08:33:53.103Z,45897.88
2022-12-18T08:36:20.740Z,45877.88
2022-12-18T08:38:48.197Z,45875.88
2022-12-18T08:41:16.641Z,45867.88
2022-12-18T08:44:01.623Z,45885.88
2022-12-18T08:46:34.239Z,45869.88
2022-12-18T08:49:00.658Z,45893.88
2022-12-18T08:51:27.355Z,45881.88
2022-12-18T08:53:53.982Z,45861.91
2022-12-18T08:56:20.374Z,45889.88
2022-12-18T08:58:46.742Z,45857.91
2022-12-18T09:01:14.655Z,45869.88
2022-12-18T09:03:41.634Z,45875.88
2022-12-18T09:06:08.563Z,45889.88
2022-12-18T09:08:37.505Z,45871.88
2022-12-18T09:11:04.160Z,45865.88
2022-12-18T09:13:30.526Z,45867.88
2022-12-18T09:15:57.131Z,45869.88
2022-12-18T09:18:25.188Z,45889.88
2022-12-18T09:20:53.326Z,45839.91
2022-12-18T09:23:20.085Z,45851.91
2022-12-18T09:25:46.570Z,45869.88
2022-12-18T09:28:15.695Z,45867.88
2022-12-18T09:30:48.247Z,45869.88
2022-12-18T09:33:14.747Z,45853.91
2022-12-18T09:35:43.706Z,45849.91
2022-12-18T09:38:15.565Z,45861.91
2022-12-18T09:40:48.271Z,45833.91
2022-12-18T09:43:19.807Z,45837.91
2022-12-18T09:45:52.121Z,45857.91
2022-12-18T09:48:28.984Z,45837.91
2022-12-18T09:51:04.587Z,45821.91
2022-12-18T09:53:35.161Z,45829.91
2022-12-18T09:56:04.766Z,45847.91
2022-12-18T09:58:41.652Z,45849.91
2022-12-18T10:01:15.236Z,45833.91
2022-12-18T10:03:44.869Z,45833.91
2022-12-18T10:06:22.203Z,45821.91
2022-12-18T10:09:16.578Z,45841.91
2022-12-18T10:12:17.958Z,45847.91
2022-12-18T10:14:56.432Z,45837.91
2022-12-18T10:17:47.848Z,45809.94
2022-12-18T10:20:14.840Z,45817.91
2022-12-18T10:23:13.042Z,45817.91
2022-12-18T10:26:04.034Z,45829.91
2022-12-18T10:28:32.214Z,45809.94
2022-12-18T10:31:00.131Z,45811.94
2022-12-18T10:33:30.645Z,45831.91
2022-12-18T10:35:57.148Z,45793.94
2022-12-18T10:38:23.740Z,45829.91
2022-12-18T10:40:57.477Z,45793.94
2022-12-18T10:43:23.922Z,45821.91
2022-12-18T10:46:12.866Z,45825.91
2022-12-18T10:48:49.948Z,45813.94
2022-12-18T10:51:25.764Z,45779.94
2022-12-18T10:54:04.410Z,45801.94
2022-12-18T10:56:35.793Z,45805.94
2022-12-18T10:59:08.161Z,45821.91
2022-12-18T11:01:58.169Z,45785.94
2022-12-18T11:04:30.819Z,45781.94
2022-12-18T11:07:00.280Z,45799.94
2022-12-18T11:09:32.787Z,45773.94
2022-12-18T11:12:02.073Z,45793.94
2022-12-18T11:14:46.777Z,45801.94
2022-12-18T11:17:31.539Z,45765.97
2022-12-18T11:20:03.795Z,45789.94
2022-12-18T11:22:33.075Z,45777.94
2022-12-18T11:25:30.886Z,45789.94
2022-12-18T11:27:52.337Z,45785.94
2022-12-18T11:30:26.575Z,45781.94
2022-12-18T11:32:57.655Z,45763.97
2022-12-18T11:35:36.870Z,45775.94
2022-12-18T11:38:21.983Z,45763.97
2022-12-18T11:40:54.021Z,45785.94
2022-12-18T11:43:49.672Z,45765.97
2022-12-18T11:46:40.166Z,45771.94
2022-12-18T11:49:22.402Z,45777.94
2022-12-18T11:51:59.101Z,45777.94
2022-12-18T11:54:25.528Z,45761.97
2022-12-18T11:56:57.034Z,45749.97
2022-12-18T11:59:36.599Z,45759.97
2022-12-18T12:02:18.570Z,45765.97
2022-12-18T12:04:58.658Z,45777.94
2022-12-18T12:07:44.109Z,45761.97
2022-12-18T12:10:38.520Z,45751.97
2022-12-18T12:13:25.754Z,45763.97
2022-12-18T12:16:18.116Z,45773.94
2022-12-18T12:18:59.536Z,45779.94
2022-12-18T12:22:04.680Z,45749.97
2022-12-18T12:24:52.215Z,45781.94
2022-12-18T12:27:27.809Z,45749.97
2022-12-18T12:30:03.566Z,45769.97
2022-12-18T12:33:10.813Z,45757.97
2022-12-18T12:35:46.345Z,45759.97
2022-12-18T12:38:19.128Z,45757.97
2022-12-18T12:41:27.409Z,45773.94
2022-12-18T12:43:58.555Z,45763.97
2022-12-18T12:46:26.906Z,45751.97
2022-12-18T12:49:00.523Z,45735.97
2022-12-18T12:51:37.452Z,45769.97
2022-12-18T12:54:07.506Z,45749.97
2022-12-18T12:56:59.731Z,45773.94
2022-12-18T12:59:43.253Z,45763.97
2022-12-18T13:02:21.676Z,45733.97
2022-12-18T13:05:01.819Z,45777.94
2022-12-18T13:07:42.361Z,45749.97
2022-12-18T13:10:11.937Z,45745.97
2022-12-18T13:13:00.921Z,45777.94
2022-12-18T13:15:46.858Z,45767.97
2022-12-18T13:18:23.529Z,45757.97
2022-12-18T13:21:02.890Z,45769.97
2022-12-18T13:23:37.467Z,45753.97
2022-12-18T13:26:07.003Z,45769.97
2022-12-18T13:28:33.421Z,45773.94
2022-12-18T13:31:01.814Z,45781.94
2022-12-18T13:33:56.379Z,45767.97
2022-12-18T13:36:25.974Z,45779.94
2022-12-18T13:39:11.367Z,45761.97
2022-12-18T13:41:38.051Z,45777.94
2022-12-18T13:44:21.475Z,45755.97
2022-12-18T13:46:51.523Z,45765.97
2022-12-18T13:49:25.021Z,45765.97
2022-12-18T13:51:56.208Z,45773.94
2022-12-18T13:54:30.222Z,45761.97
2022-12-18T13:56:56.946Z,45763.97
2022-12-18T13:59:33.416Z,45747.97
2022-12-18T14:02:06.479Z,45769.97
2022-12-18T14:04:34.780Z,45773.94
2022-12-18T14:07:23.150Z,45767.97
2022-12-18T14:10:12.181Z,45769.97
2022-12-18T14:12:57.467Z,45751.97
2022-12-18T14:15:27.109Z,45781.94
2022-12-18T14:17:59.869Z,45777.94
2022-12-18T14:20:29.043Z,45757.97
2022-12-18T14:22:56.970Z,45761.97
2022-12-18T14:25:26.990Z,45775.94
2022-12-18T14:28:03.959Z,45771.94
2022-12-18T14:30:38.898Z,45759.97
2022-12-18T14:33:11.145Z,45755.97
2022-12-18T14:35:40.463Z,45765.97
2022-12-18T14:38:32.895Z,45755.97
2022-12-18T14:41:10.620Z,45761.97
2022-12-18T14:43:39.659Z,45763.97
2022-12-18T14:46:26.553Z,45710.00
2022-12-18T14:48:54.252Z,45664.03
2022-12-18T14:51:27.239Z,45710.00
2022-12-18T14:53:57.206Z,45725.97
2022-12-18T14:56:26.797Z,45733.97
2022-12-18T14:58:58.844Z,45733.97
2022-12-18T15:01:34.475Z,45769.97
2022-12-18T15:04:03.846Z,45773.94
2022-12-18T15:06:36.431Z,45757.97
2022-12-18T15:09:38.853Z,45773.94
2022-12-18T15:12:05.472Z,45773.94
2022-12-18T15:14:44.712Z,45773.94
2022-12-18T15:17:20.948Z,45765.97
2022-12-18T15:19:50.984Z,45769.97
2022-12-18T15:22:29.475Z,45757.97
2022-12-18T15:24:58.007Z,45757.97
2022-12-18T15:27:31.042Z,45751.97
2022-12-18T15:30:09.896Z,45737.97
2022-12-18T15:32:42.790Z,45777.94
2022-12-18T15:35:12.166Z,45749.97
2022-12-18T15:37:38.713Z,45759.97
2022-12-18T15:40:07.056Z,45773.94
2022-12-18T15:42:52.349Z,45793.94
2022-12-18T15:45:19.210Z,45773.94
2022-12-18T15:47:46.312Z,45777.94
2022-12-18T15:50:12.783Z,45801.94
2022-12-18T15:52:44.872Z,45793.94
2022-12-18T15:55:35.311Z,45769.97
2022-12-18T15:58:03.218Z,45777.94
2022-12-18T16:00:29.679Z,45785.94
2022-12-18T16:02:56.293Z,45761.97
2022-12-18T16:05:24.378Z,45785.94
2022-12-18T16:07:50.840Z,45777.94
2022-12-18T16:10:17.238Z,45765.97
2022-12-18T16:12:43.952Z,45789.94
2022-12-18T16:15:14.297Z,45789.94
2022-12-18T16:17:41.273Z,45789.94
2022-12-18T16:20:13.809Z,45777.94
2022-12-18T16:22:40.187Z,45779.94
2022-12-18T16:25:06.860Z,45781.94
2022-12-18T16:27:33.232Z,45777.94
2022-12-18T16:29:59.831Z,45769.97
2022-12-18T16:32:26.284Z,45757.97
2022-12-18T16:34:52.687Z,45769.97
2022-12-18T16:37:19.289Z,45809.94
2022-12-18T16:39:46.194Z,45789.94
2022-12-18T16:42:20.491Z,45765.97
2022-12-18T16:44:48.913Z,45781.94
2022-12-18T16:47:15.866Z,45783.94
2022-12-18T16:49:45.653Z,45777.94
2022-12-18T16:52:12.921Z,45769.97
2022-12-18T16:54:39.286Z,45783.94
2022-12-18T16:57:05.735Z,45795.94
2022-12-18T16:59:34.872Z,45801.94
2022-12-18T17:02:01.896Z,45793.94
2022-12-18T17:04:28.726Z,45781.94
2022-12-18T17:06:55.079Z,45777.94
2022-12-18T17:09:30.765Z,45791.94
2022-12-18T17:11:57.162Z,45777.94
2022-12-18T17:14:24.879Z,45761.97
2022-12-18T17:17:19.107Z,45773.94
2022-12-18T17:19:38.764Z,45781.94
2022-12-18T17:22:05.175Z,45771.94
2022-12-18T17:24:35.068Z,45775.94
2022-12-18T17:27:02.834Z,45767.97
2022-12-18T17:29:29.294Z,45777.94
2022-12-18T17:31:55.684Z,45775.94
2022-12-18T17:34:23.769Z,45789.94
2022-12-18T17:36:50.124Z,45805.94
2022-12-18T17:39:21.016Z,45769.97
2022-12-18T17:41:49.132Z,45757.97
2022-12-18T17:44:16.489Z,45763.97
2022-12-18T17:46:43.569Z,45789.94
2022-12-18T17:49:10.999Z,45793.94
2022-12-18T17:51:38.683Z,45769.97
2022-12-18T17:54:06.282Z,45769.97
2022-12-18T17:56:32.865Z,45811.94
2022-12-18T17:58:59.691Z,45767.97
2022-12-18T18:01:26.725Z,45765.97
2022-12-18T18:03:56.007Z,45789.94
2022-12-18T18:06:23.926Z,45777.94
2022-12-18T18:08:50.983Z,45781.94
2022-12-18T18:11:38.515Z,45801.94
2022-12-18T18:14:08.434Z,45793.94
2022-12-18T18:16:40.317Z,45779.94
2022-12-18T18:19:11.488Z,45801.94
2022-12-18T18:21:40.921Z,45793.94
2022-12-18T18:24:08.981Z,45779.94
2022-12-18T18:26:37.262Z,45771.94
2022-12-18T18:29:06.261Z,45761.97
2022-12-18T18:31:40.859Z,45761.97
2022-12-18T18:34:08.530Z,45797.94
2022-12-18T18:36:34.917Z,45781.94
2022-12-18T18:39:02.198Z,45779.94
2022-12-18T18:41:30.366Z,45801.94
2022-12-18T18:43:58.011Z,45763.97
2022-12-18T18:46:25.206Z,45777.94
2022-12-18T18:48:51.902Z,45777.94
2022-12-18T18:51:21.352Z,45777.94
2022-12-18T18:53:50.448Z,45789.94
2022-12-18T18:59:06.864Z,45781.94
2022-12-18T19:01:33.381Z,45785.94
2022-12-18T19:04:03.611Z,45811.94
2022-12-18T19:06:30.123Z,45769.97
2022-12-18T19:08:58.434Z,45801.94
2022-12-18T19:11:45.029Z,45789.94
2022-12-18T19:14:13.851Z,45785.94
2022-12-18T19:16:41.128Z,45781.94
2022-12-18T19:19:08.265Z,45777.94
2022-12-18T19:21:35.727Z,45777.94
2022-12-18T19:24:02.530Z,45793.94
2022-12-18T19:26:29.235Z,45793.94
2022-12-18T19:29:07.458Z,45773.94
2022-12-18T19:31:36.428Z,45781.94
2022-12-18T19:34:06.512Z,45773.94
2022-12-18T19:36:35.326Z,45765.97
2022-12-18T19:39:07.489Z,45801.94
2022-12-18T19:41:34.043Z,45773.94
2022-12-18T19:44:07.858Z,45813.94
2022-12-18T19:46:35.928Z,45767.97
2022-12-18T19:49:02.717Z,45785.94
2022-12-18T19:51:31.229Z,45763.97
2022-12-18T19:54:01.261Z,45793.94
2022-12-18T19:56:31.346Z,45801.94
2022-12-18T19:58:58.453Z,45789.94
2022-12-18T20:01:26.134Z,45797.94
2022-12-18T20:03:55.268Z,45789.94
2022-12-18T20:06:27.226Z,45765.97
2022-12-18T20:08:58.335Z,45773.94
2022-12-18T20:11:26.848Z,45793.94
2022-12-18T20:13:54.136Z,45779.94
2022-12-18T20:16:20.732Z,45781.94
2022-12-18T20:18:47.344Z,45765.97
2022-12-18T20:21:14.651Z,45793.94
2022-12-18T20:23:41.637Z,45781.94
2022-12-18T20:26:08.751Z,45773.94
2022-12-18T20:28:35.694Z,45761.97
2022-12-18T20:31:06.326Z,45795.94
2022-12-18T20:33:33.150Z,45785.94
2022-12-18T20:36:07.976Z,45797.94
2022-12-18T20:38:35.424Z,45777.94
2022-12-18T20:41:07.328Z,45771.94
2022-12-18T20:43:33.755Z,45769.97
2022-12-18T20:46:05.165Z,45789.94
2022-12-18T20:48:32.593Z,45773.94
2022-12-18T20:51:10.038Z,45757.97
2022-12-18T20:53:36.885Z,45773.94
2022-12-18T20:56:10.472Z,45789.94
2022-12-18T20:58:37.440Z,45783.94
2022-12-18T21:01:05.425Z,45755.97
2022-12-18T21:03:32.139Z,45757.97
2022-12-18T21:05:58.587Z,45781.94
2022-12-18T21:08:24.955Z,45777.94
2022-12-18T21:10:51.434Z,45785.94
2022-12-18T21:13:20.611Z,45773.94
2022-12-18T21:15:47.157Z,45789.94
2022-12-18T21:18:13.661Z,45769.97
2022-12-18T21:20:40.109Z,45779.94
2022-12-18T21:23:15.679Z,45753.97
2022-12-18T21:25:43.203Z,45773.94
2022-12-18T21:28:09.550Z,45777.94
2022-12-18T21:30:35.959Z,45757.97
2022-12-18T21:33:02.317Z,45757.97
2022-12-18T21:35:30.972Z,45749.97
2022-12-18T21:37:58.581Z,45779.94
2022-12-18T21:40:25.017Z,45751.97
2022-12-18T21:43:10.376Z,45777.94
2022-12-18T21:45:40.325Z,45755.97
2022-12-18T21:48:06.822Z,45769.97
2022-12-18T21:50:33.214Z,45773.94
2022-12-18T21:52:59.706Z,45761.97
2022-12-18T21:55:26.141Z,45781.94
2022-12-18T21:57:53.815Z,45753.97
2022-12-18T22:00:20.211Z,45753.97
2022-12-18T22:02:48.272Z,45753.97
2022-12-18T22:05:15.991Z,45769.97
2022-12-18T22:07:42.363Z,45767.97
2022-12-18T22:10:09.142Z,45757.97
2022-12-18T22:12:43.599Z,45769.97
2022-12-18T22:15:13.190Z,45769.97
2022-12-18T22:17:48.411Z,45757.97
2022-12-18T22:20:15.907Z,45767.97
2022-12-18T22:22:42.305Z,45761.97
2022-12-18T22:25:10.506Z,45769.97
2022-12-18T22:27:37.725Z,45765.97
2022-12-18T22:30:05.095Z,45761.97
2022-12-18T22:32:33.775Z,45765.97
2022-12-18T22:35:06.812Z,45749.97
2022-12-18T22:37:35.839Z,45761.97
2022-12-18T22:40:05.121Z,45769.97
2022-12-18T22:42:32.775Z,45749.97
2022-12-18T22:45:00.145Z,45785.94
2022-12-18T22:47:29.686Z,45769.97
2022-12-18T22:49:57.484Z,45751.97
2022-12-18T22:52:24.735Z,45765.97
2022-12-18T22:54:53.242Z,45789.94
2022-12-18T22:57:21.426Z,45761.97
2022-12-18T22:59:47.927Z,45749.97
2022-12-18T23:02:14.440Z,45751.97
2022-12-18T23:04:40.983Z,45771.94
2022-12-18T23:07:07.360Z,45757.97
2022-12-18T23:09:34.286Z,45763.97
2022-12-18T23:12:01.060Z,45757.97
2022-12-18T23:14:28.748Z,45755.97
2022-12-18T23:16:55.311Z,45757.97
2022-12-18T23:19:23.687Z,45777.94
2022-12-18T23:21:51.076Z,45773.94
2022-12-18T23:24:17.740Z,45755.97
2022-12-18T23:26:44.516Z,45761.97
2022-12-18T23:29:10.863Z,45781.94
2022-12-18T23:31:39.049Z,45761.97
2022-12-18T23:34:07.995Z,45761.97
2022-12-18T23:36:45.219Z,45759.97
2022-12-18T23:39:17.227Z,45757.97
2022-12-18T23:42:00.237Z,45757.97
2022-12-18T23:44:27.564Z,45753.97
2022-12-18T23:46:54.669Z,45769.97
2022-12-18T23:49:21.269Z,45765.97
2022-12-18T23:51:47.696Z,45751.97
2022-12-18T23:54:14.092Z,45767.97
2022-12-18T23:56:40.722Z,45749.97
2022-12-18T23:59:07.143Z,45745.97
